sensor_id;sensor_type;location;lat;lon;timestamp;pressure;altitude;pressure_sealevel;temperature;humidity
63033;BME280;49121;38.932;-9.018;2022-12-07T00:00:15;57859.22;;;-145.11;100.00
63033;BME280;49121;38.932;-9.018;2022-12-07T00:03:18;57859.22;;;-145.11;100.00
63033;BME280;49121;38.932;-9.018;2022-12-07T00:06:18;57859.22;;;-145.11;100.00
63033;BME280;49121;38.932;-9.018;2022-12-07T00:09:36;57859.22;;;-145.11;100.00
63033;BME280;49121;38.932;-9.018;2022-12-07T00:12:35;57859.22;;;-145.11;100.00
63033;BME280;49121;38.932;-9.018;2022-12-07T00:15:34;57859.22;;;-145.11;100.00
63033;BME280;49121;38.932;-9.018;2022-12-07T00:18:35;57859.22;;;-145.11;100.00
63033;BME280;49121;38.932;-9.018;2022-12-07T00:21:54;57859.22;;;-145.11;100.00
63033;BME280;49121;38.932;-9.018;2022-12-07T00:24:54;57859.22;;;-145.11;100.00
63033;BME280;49121;38.932;-9.018;2022-12-07T00:27:53;57859.22;;;-145.11;100.00
63033;BME280;49121;38.932;-9.018;2022-12-07T00:31:13;57859.22;;;-145.11;100.00
63033;BME280;49121;38.932;-9.018;2022-12-07T00:37:31;57859.22;;;-145.11;100.00
63033;BME280;49121;38.932;-9.018;2022-12-07T00:40:30;57859.22;;;-145.11;100.00
63033;BME280;49121;38.932;-9.018;2022-12-07T00:43:29;57859.22;;;-145.11;100.00
63033;BME280;49121;38.932;-9.018;2022-12-07T00:46:29;57859.22;;;-145.11;100.00
63033;BME280;49121;38.932;-9.018;2022-12-07T00:49:28;57859.22;;;-145.11;100.00
63033;BME280;49121;38.932;-9.018;2022-12-07T00:52:27;57859.22;;;-145.11;100.00
63033;BME280;49121;38.932;-9.018;2022-12-07T00:55:45;57859.22;;;-145.11;100.00
63033;BME280;49121;38.932;-9.018;2022-12-07T00:58:55;57859.22;;;-145.11;100.00
63033;BME280;49121;38.932;-9.018;2022-12-07T01:01:57;57859.22;;;-145.11;100.00
63033;BME280;49121;38.932;-9.018;2022-12-07T01:04:57;57859.22;;;-145.11;100.00
63033;BME280;49121;38.932;-9.018;2022-12-07T01:07:56;57859.22;;;-145.11;100.00
63033;BME280;49121;38.932;-9.018;2022-12-07T01:11:05;57859.22;;;-145.11;100.00
63033;BME280;49121;38.932;-9.018;2022-12-07T01:14:05;57859.22;;;-145.11;100.00
63033;BME280;49121;38.932;-9.018;2022-12-07T01:17:05;57859.22;;;-145.11;100.00
63033;BME280;49121;38.932;-9.018;2022-12-07T01:20:04;57859.22;;;-145.11;100.00
63033;BME280;49121;38.932;-9.018;2022-12-07T01:26:59;57859.22;;;-145.11;100.00
63033;BME280;49121;38.932;-9.018;2022-12-07T01:29:58;57859.22;;;-145.11;100.00
63033;BME280;49121;38.932;-9.018;2022-12-07T01:32:58;57859.22;;;-145.11;100.00
63033;BME280;49121;38.932;-9.018;2022-12-07T01:36:04;57859.22;;;-145.11;100.00
63033;BME280;49121;38.932;-9.018;2022-12-07T01:39:05;57859.22;;;-145.11;100.00
63033;BME280;49121;38.932;-9.018;2022-12-07T01:42:04;57859.22;;;-145.11;100.00
63033;BME280;49121;38.932;-9.018;2022-12-07T01:48:32;57859.22;;;-145.11;100.00
63033;BME280;49121;38.932;-9.018;2022-12-07T01:51:34;57859.22;;;-145.11;100.00
63033;BME280;49121;38.932;-9.018;2022-12-07T01:58:31;57859.22;;;-145.11;100.00
63033;BME280;49121;38.932;-9.018;2022-12-07T02:01:30;57859.22;;;-145.11;100.00
63033;BME280;49121;38.932;-9.018;2022-12-07T02:05:06;57859.22;;;-145.11;100.00
63033;BME280;49121;38.932;-9.018;2022-12-07T02:08:06;57859.22;;;-145.11;100.00
63033;BME280;49121;38.932;-9.018;2022-12-07T02:11:12;57859.22;;;-145.11;100.00
63033;BME280;49121;38.932;-9.018;2022-12-07T02:14:30;57859.22;;;-145.11;100.00
63033;BME280;49121;38.932;-9.018;2022-12-07T02:31:53;57859.22;;;-145.11;100.00
63033;BME280;49121;38.932;-9.018;2022-12-07T02:35:17;57859.22;;;-145.11;100.00
63033;BME280;49121;38.932;-9.018;2022-12-07T02:38:25;57859.22;;;-145.11;100.00
63033;BME280;49121;38.932;-9.018;2022-12-07T02:41:56;57859.22;;;-145.11;100.00
63033;BME280;49121;38.932;-9.018;2022-12-07T02:45:20;57859.22;;;-145.11;100.00
63033;BME280;49121;38.932;-9.018;2022-12-07T02:48:23;57859.22;;;-145.11;100.00
63033;BME280;49121;38.932;-9.018;2022-12-07T02:51:24;57859.22;;;-145.11;100.00
63033;BME280;49121;38.932;-9.018;2022-12-07T02:54:42;57859.22;;;-145.11;100.00
63033;BME280;49121;38.932;-9.018;2022-12-07T03:01:21;57859.22;;;-145.11;100.00
63033;BME280;49121;38.932;-9.018;2022-12-07T03:18:22;57859.22;;;-145.11;100.00
63033;BME280;49121;38.932;-9.018;2022-12-07T03:21:28;57859.22;;;-145.11;100.00
63033;BME280;49121;38.932;-9.018;2022-12-07T03:24:33;57859.22;;;-145.11;100.00
63033;BME280;49121;38.932;-9.018;2022-12-07T03:27:39;57859.22;;;-145.11;100.00
63033;BME280;49121;38.932;-9.018;2022-12-07T03:30:47;57859.22;;;-145.11;100.00
63033;BME280;49121;38.932;-9.018;2022-12-07T03:33:59;57859.22;;;-145.11;100.00
63033;BME280;49121;38.932;-9.018;2022-12-07T03:44:35;57859.22;;;-145.11;100.00
63033;BME280;49121;38.932;-9.018;2022-12-07T03:47:54;57859.22;;;-145.11;100.00
63033;BME280;49121;38.932;-9.018;2022-12-07T03:54:33;57859.22;;;-145.11;100.00
63033;BME280;49121;38.932;-9.018;2022-12-07T03:57:34;57859.22;;;-145.11;100.00
63033;BME280;49121;38.932;-9.018;2022-12-07T04:00:35;57859.22;;;-145.11;100.00
63033;BME280;49121;38.932;-9.018;2022-12-07T04:03:35;57859.22;;;-145.11;100.00
63033;BME280;49121;38.932;-9.018;2022-12-07T04:06:34;57859.22;;;-145.11;100.00
63033;BME280;49121;38.932;-9.018;2022-12-07T04:09:41;57859.22;;;-145.11;100.00
63033;BME280;49121;38.932;-9.018;2022-12-07T04:12:40;57859.22;;;-145.11;100.00
63033;BME280;49121;38.932;-9.018;2022-12-07T04:15:40;57859.22;;;-145.11;100.00
63033;BME280;49121;38.932;-9.018;2022-12-07T04:18:39;57859.22;;;-145.11;100.00
63033;BME280;49121;38.932;-9.018;2022-12-07T04:21:38;57859.22;;;-145.11;100.00
63033;BME280;49121;38.932;-9.018;2022-12-07T04:28:33;57859.22;;;-145.11;100.00
63033;BME280;49121;38.932;-9.018;2022-12-07T04:31:32;57859.22;;;-145.11;100.00
63033;BME280;49121;38.932;-9.018;2022-12-07T04:34:31;57859.22;;;-145.11;100.00
63033;BME280;49121;38.932;-9.018;2022-12-07T04:37:49;57859.22;;;-145.11;100.00
63033;BME280;49121;38.932;-9.018;2022-12-07T04:40:48;57859.22;;;-145.11;100.00
63033;BME280;49121;38.932;-9.018;2022-12-07T04:43:47;57859.22;;;-145.11;100.00
63033;BME280;49121;38.932;-9.018;2022-12-07T04:46:47;57859.22;;;-145.11;100.00
63033;BME280;49121;38.932;-9.018;2022-12-07T04:49:46;57859.22;;;-145.11;100.00
63033;BME280;49121;38.932;-9.018;2022-12-07T04:52:45;57859.22;;;-145.11;100.00
63033;BME280;49121;38.932;-9.018;2022-12-07T04:59:11;57859.22;;;-145.11;100.00
63033;BME280;49121;38.932;-9.018;2022-12-07T05:02:11;57859.22;;;-145.11;100.00
63033;BME280;49121;38.932;-9.018;2022-12-07T05:05:10;57859.22;;;-145.11;100.00
63033;BME280;49121;38.932;-9.018;2022-12-07T05:08:28;57859.22;;;-145.11;100.00
63033;BME280;49121;38.932;-9.018;2022-12-07T05:15:41;57859.22;;;-145.11;100.00
63033;BME280;49121;38.932;-9.018;2022-12-07T05:18:42;57859.22;;;-145.11;100.00
63033;BME280;49121;38.932;-9.018;2022-12-07T05:21:42;57859.22;;;-145.11;100.00
63033;BME280;49121;38.932;-9.018;2022-12-07T05:24:42;57859.22;;;-145.11;100.00
63033;BME280;49121;38.932;-9.018;2022-12-07T05:27:41;57859.22;;;-145.11;100.00
63033;BME280;49121;38.932;-9.018;2022-12-07T05:30:40;57859.22;;;-145.11;100.00
63033;BME280;49121;38.932;-9.018;2022-12-07T05:33:40;57859.22;;;-145.11;100.00
63033;BME280;49121;38.932;-9.018;2022-12-07T05:36:39;57859.22;;;-145.11;100.00
63033;BME280;49121;38.932;-9.018;2022-12-07T05:39:38;57859.22;;;-145.11;100.00
63033;BME280;49121;38.932;-9.018;2022-12-07T05:42:40;57859.22;;;-145.11;100.00
63033;BME280;49121;38.932;-9.018;2022-12-07T05:45:57;57859.22;;;-145.11;100.00
63033;BME280;49121;38.932;-9.018;2022-12-07T05:48:57;57859.22;;;-145.11;100.00
63033;BME280;49121;38.932;-9.018;2022-12-07T05:51:57;57859.22;;;-145.11;100.00
63033;BME280;49121;38.932;-9.018;2022-12-07T05:54:57;57859.22;;;-145.11;100.00
63033;BME280;49121;38.932;-9.018;2022-12-07T06:02:11;57859.22;;;-145.11;100.00
63033;BME280;49121;38.932;-9.018;2022-12-07T06:05:30;57859.22;;;-145.11;100.00
63033;BME280;49121;38.932;-9.018;2022-12-07T06:08:48;57859.22;;;-145.11;100.00
63033;BME280;49121;38.932;-9.018;2022-12-07T06:11:32;57859.22;;;-145.11;100.00
63033;BME280;49121;38.932;-9.018;2022-12-07T06:14:21;57859.22;;;-145.11;100.00
63033;BME280;49121;38.932;-9.018;2022-12-07T06:16:22;57859.22;;;-145.11;100.00
63033;BME280;49121;38.932;-9.018;2022-12-07T06:18:23;57859.22;;;-145.11;100.00
63033;BME280;49121;38.932;-9.018;2022-12-07T06:20:23;146967.97;;;10.38;100.00
63033;BME280;49121;38.932;-9.018;2022-12-07T06:27:58;146980.53;;;10.43;100.00
63033;BME280;49121;38.932;-9.018;2022-12-07T06:29:59;146962.91;;;10.36;100.00
63033;BME280;49121;38.932;-9.018;2022-12-07T06:32:00;146965.47;;;10.37;100.00
63033;BME280;49121;38.932;-9.018;2022-12-07T06:34:01;146961.66;;;10.35;100.00
63033;BME280;49121;38.932;-9.018;2022-12-07T06:36:21;146956.63;;;10.33;100.00
63033;BME280;49121;38.932;-9.018;2022-12-07T06:38:40;146955.38;;;10.33;100.00
63033;BME280;49121;38.932;-9.018;2022-12-07T06:40:40;146960.41;;;10.35;100.00
63033;BME280;49121;38.932;-9.018;2022-12-07T06:42:41;146965.47;;;10.37;100.00
63033;BME280;49121;38.932;-9.018;2022-12-07T06:44:42;146962.91;;;10.36;100.00
63033;BME280;49121;38.932;-9.018;2022-12-07T06:46:42;146961.66;;;10.35;100.00
63033;BME280;49121;38.932;-9.018;2022-12-07T06:48:43;146970.47;;;10.39;100.00
63033;BME280;49121;38.932;-9.018;2022-12-07T06:50:44;146970.47;;;10.39;100.00
63033;BME280;49121;38.932;-9.018;2022-12-07T06:52:45;146979.28;;;10.42;100.00
63033;BME280;49121;38.932;-9.018;2022-12-07T06:54:45;146985.59;;;10.45;100.00
63033;BME280;49121;38.932;-9.018;2022-12-07T06:56:46;146984.34;;;10.44;100.00
63033;BME280;49121;38.932;-9.018;2022-12-07T06:58:46;146985.59;;;10.45;100.00
63033;BME280;49121;38.932;-9.018;2022-12-07T07:03:45;146979.28;;;10.42;100.00
63033;BME280;49121;38.932;-9.018;2022-12-07T07:05:46;146993.19;;;10.48;100.00
63033;BME280;49121;38.932;-9.018;2022-12-07T07:07:48;147000.72;;;10.51;100.00
63033;BME280;49121;38.932;-9.018;2022-12-07T07:09:49;146994.44;;;10.49;100.00
63033;BME280;49121;38.932;-9.018;2022-12-07T07:11:49;146995.69;;;10.49;100.00
63033;BME280;49121;38.932;-9.018;2022-12-07T07:14:09;146995.69;;;10.49;100.00
63033;BME280;49121;38.932;-9.018;2022-12-07T07:16:09;146990.63;;;10.47;100.00
63033;BME280;49121;38.932;-9.018;2022-12-07T07:18:10;146998.22;;;10.50;100.00
63033;BME280;49121;38.932;-9.018;2022-12-07T07:20:48;147008.31;;;10.54;100.00
63033;BME280;49121;38.932;-9.018;2022-12-07T07:23:07;146991.94;;;10.48;100.00
63033;BME280;49121;38.932;-9.018;2022-12-07T07:25:08;147017.13;;;10.58;100.00
63033;BME280;49121;38.932;-9.018;2022-12-07T07:27:08;147009.56;;;10.55;100.00
63033;BME280;49121;38.932;-9.018;2022-12-07T07:32:05;147022.16;;;10.60;100.00
63033;BME280;49121;38.932;-9.018;2022-12-07T07:34:26;147024.72;;;10.61;100.00
63033;BME280;49121;38.932;-9.018;2022-12-07T07:36:26;147019.66;;;10.59;100.00
63033;BME280;49121;38.932;-9.018;2022-12-07T07:38:27;147015.88;;;10.57;100.00
63033;BME280;49121;38.932;-9.018;2022-12-07T07:40:28;147015.88;;;10.57;100.00
63033;BME280;49121;38.932;-9.018;2022-12-07T07:42:29;146981.84;;;10.43;100.00
63033;BME280;49121;38.932;-9.018;2022-12-07T07:44:30;146974.25;;;10.40;100.00
63033;BME280;49121;38.932;-9.018;2022-12-07T07:46:30;146965.47;;;10.37;100.00
63033;BME280;49121;38.932;-9.018;2022-12-07T07:48:33;146955.38;;;10.33;100.00
63033;BME280;49121;38.932;-9.018;2022-12-07T07:50:34;146954.06;;;10.32;100.00
63033;BME280;49121;38.932;-9.018;2022-12-07T07:52:34;146955.38;;;10.33;100.00
63033;BME280;49121;38.932;-9.018;2022-12-07T07:54:35;146947.78;;;10.30;100.00
63033;BME280;49121;38.932;-9.018;2022-12-07T07:56:35;146955.38;;;10.33;100.00
63033;BME280;49121;38.932;-9.018;2022-12-07T07:58:36;146950.31;;;10.31;100.00
63033;BME280;49121;38.932;-9.018;2022-12-07T08:00:39;146951.56;;;10.31;100.00
63033;BME280;49121;38.932;-9.018;2022-12-07T08:02:41;146951.56;;;10.31;100.00
63033;BME280;49121;38.932;-9.018;2022-12-07T08:05:01;146907.41;;;10.13;100.00
63033;BME280;49121;38.932;-9.018;2022-12-07T08:07:41;146966.72;;;10.37;100.00
63033;BME280;49121;38.932;-9.018;2022-12-07T08:09:41;146959.13;;;10.34;100.00
63033;BME280;49121;38.932;-9.018;2022-12-07T08:11:42;146965.47;;;10.37;100.00
63033;BME280;49121;38.932;-9.018;2022-12-07T08:13:45;146950.31;;;10.31;100.00
63033;BME280;49121;38.932;-9.018;2022-12-07T08:15:50;146959.13;;;10.34;100.00
63033;BME280;49121;38.932;-9.018;2022-12-07T08:17:51;146959.13;;;10.34;100.00
63033;BME280;49121;38.932;-9.018;2022-12-07T08:19:52;146956.63;;;10.33;100.00
63033;BME280;49121;38.932;-9.018;2022-12-07T08:21:53;146942.69;;;10.28;100.00
63033;BME280;49121;38.932;-9.018;2022-12-07T08:24:14;146936.38;;;10.25;100.00
63033;BME280;49121;38.932;-9.018;2022-12-07T08:26:16;146943.94;;;10.28;100.00
63033;BME280;49121;38.932;-9.018;2022-12-07T08:28:17;146951.56;;;10.31;100.00
63033;BME280;49121;38.932;-9.018;2022-12-07T08:30:18;146960.41;;;10.35;100.00
63033;BME280;49121;38.932;-9.018;2022-12-07T08:32:19;146967.97;;;10.38;100.00
63033;BME280;49121;38.932;-9.018;2022-12-07T08:34:28;146969.22;;;10.38;100.00
63033;BME280;49121;38.932;-9.018;2022-12-07T08:36:32;146980.53;;;10.43;100.00
63033;BME280;49121;38.932;-9.018;2022-12-07T08:38:34;147000.72;;;10.51;100.00
63033;BME280;49121;38.932;-9.018;2022-12-07T08:40:35;146979.28;;;10.42;100.00
63033;BME280;49121;38.932;-9.018;2022-12-07T08:42:36;146995.69;;;10.49;100.00
63033;BME280;49121;38.932;-9.018;2022-12-07T08:44:40;147003.28;;;10.52;100.00
63033;BME280;49121;38.932;-9.018;2022-12-07T08:46:46;147007.03;;;10.54;100.00
63033;BME280;49121;38.932;-9.018;2022-12-07T08:48:58;147046.16;;;10.70;100.00
63033;BME280;49121;38.932;-9.018;2022-12-07T08:51:02;147020.91;;;10.59;100.00
63033;BME280;49121;38.932;-9.018;2022-12-07T08:53:04;146995.69;;;10.49;100.00
63033;BME280;49121;38.932;-9.018;2022-12-07T08:55:27;146988.13;;;10.46;100.00
63033;BME280;49121;38.932;-9.018;2022-12-07T08:57:28;146976.78;;;10.41;100.00
63033;BME280;49121;38.932;-9.018;2022-12-07T08:59:31;146957.88;;;10.34;100.00
63033;BME280;49121;38.932;-9.018;2022-12-07T09:01:34;146986.88;;;10.46;100.00
63033;BME280;49121;38.932;-9.018;2022-12-07T09:03:34;147029.75;;;10.63;100.00
63033;BME280;49121;38.932;-9.018;2022-12-07T09:05:38;147048.66;;;10.71;100.00
63033;BME280;49121;38.932;-9.018;2022-12-07T09:07:49;147053.69;;;10.73;100.00
63033;BME280;49121;38.932;-9.018;2022-12-07T09:09:53;147083.97;;;10.85;100.00
63033;BME280;49121;38.932;-9.018;2022-12-07T09:12:17;147116.75;;;10.98;100.00
63033;BME280;49121;38.932;-9.018;2022-12-07T09:14:17;147136.94;;;11.07;100.00
63033;BME280;49121;38.932;-9.018;2022-12-07T09:16:38;147145.78;;;11.10;100.00
63033;BME280;49121;38.932;-9.018;2022-12-07T09:18:57;147142.00;;;11.09;100.00
63033;BME280;49121;38.932;-9.018;2022-12-07T09:20:58;147171.03;;;11.20;100.00
63033;BME280;49121;38.932;-9.018;2022-12-07T09:23:01;147164.69;;;11.18;100.00
63033;BME280;49121;38.932;-9.018;2022-12-07T09:25:03;147183.63;;;11.25;100.00
63033;BME280;49121;38.932;-9.018;2022-12-07T09:27:05;147200.03;;;11.32;100.00
63033;BME280;49121;38.932;-9.018;2022-12-07T09:29:08;147236.63;;;11.47;100.00
63033;BME280;49121;38.932;-9.018;2022-12-07T09:31:08;147255.56;;;11.55;100.00
63033;BME280;49121;38.932;-9.018;2022-12-07T09:33:11;147275.72;;;11.63;100.00
63033;BME280;49121;38.932;-9.018;2022-12-07T09:35:12;147275.72;;;11.63;100.00
63033;BME280;49121;38.932;-9.018;2022-12-07T09:37:12;147307.25;;;11.76;100.00
63033;BME280;49121;38.932;-9.018;2022-12-07T09:39:13;147293.41;;;11.70;100.00
63033;BME280;49121;38.932;-9.018;2022-12-07T09:41:15;147309.81;;;11.77;100.00
63033;BME280;49121;38.932;-9.018;2022-12-07T09:43:24;147279.50;;;11.64;100.00
63033;BME280;49121;38.932;-9.018;2022-12-07T09:45:36;147295.91;;;11.71;100.00
63033;BME280;49121;38.932;-9.018;2022-12-07T09:47:40;147303.50;;;11.74;100.00
63033;BME280;49121;38.932;-9.018;2022-12-07T09:49:48;147331.28;;;11.85;100.00
63033;BME280;49121;38.932;-9.018;2022-12-07T09:51:57;147351.53;;;11.94;100.00
63033;BME280;49121;38.932;-9.018;2022-12-07T09:54:00;147326.22;;;11.83;100.00
63033;BME280;49121;38.932;-9.018;2022-12-07T09:56:11;147323.66;;;11.82;100.00
63033;BME280;49121;38.932;-9.018;2022-12-07T09:58:21;147295.91;;;11.71;100.00
63033;BME280;49121;38.932;-9.018;2022-12-07T10:00:40;147326.22;;;11.83;100.00
63033;BME280;49121;38.932;-9.018;2022-12-07T10:02:59;147343.91;;;11.91;100.00
63033;BME280;49121;38.932;-9.018;2022-12-07T10:05:37;147347.72;;;11.92;100.00
63033;BME280;49121;38.932;-9.018;2022-12-07T10:07:40;147347.72;;;11.92;100.00
63033;BME280;49121;38.932;-9.018;2022-12-07T10:09:41;147343.91;;;11.91;100.00
63033;BME280;49121;38.932;-9.018;2022-12-07T10:14:13;147338.88;;;11.89;100.00
63033;BME280;49121;38.932;-9.018;2022-12-07T10:16:35;147304.75;;;11.75;100.00
63033;BME280;49121;38.932;-9.018;2022-12-07T10:18:42;147321.16;;;11.81;100.00
63033;BME280;49121;38.932;-9.018;2022-12-07T10:20:45;147316.13;;;11.79;100.00
63033;BME280;49121;38.932;-9.018;2022-12-07T10:23:05;147327.47;;;11.84;100.00
63033;BME280;49121;38.932;-9.018;2022-12-07T10:25:26;147348.97;;;11.93;100.00
63033;BME280;49121;38.932;-9.018;2022-12-07T10:27:32;147389.38;;;12.09;100.00
63033;BME280;49121;38.932;-9.018;2022-12-07T10:29:36;147401.97;;;12.14;100.00
63033;BME280;49121;38.932;-9.018;2022-12-07T10:31:46;147439.84;;;12.30;100.00
63033;BME280;49121;38.932;-9.018;2022-12-07T10:34:00;147482.81;;;12.47;100.00
63033;BME280;49121;38.932;-9.018;2022-12-07T10:36:19;147467.66;;;12.41;100.00
63033;BME280;49121;38.932;-9.018;2022-12-07T10:38:20;147404.53;;;12.15;100.00
63033;BME280;49121;38.932;-9.018;2022-12-07T10:40:29;147484.06;;;12.47;100.00
63033;BME280;49121;38.932;-9.018;2022-12-07T10:42:31;147503.00;;;12.55;100.00
63033;BME280;49121;38.932;-9.018;2022-12-07T10:44:33;147562.38;;;12.79;100.00
63033;BME280;49121;38.932;-9.018;2022-12-07T10:49:30;147633.09;;;13.08;100.00
63033;BME280;49121;38.932;-9.018;2022-12-07T10:51:58;147658.38;;;13.18;100.00
63033;BME280;49121;38.932;-9.018;2022-12-07T10:59:09;147765.81;;;13.62;100.00
63033;BME280;49121;38.932;-9.018;2022-12-07T11:01:42;147821.44;;;13.84;100.00
63033;BME280;49121;38.932;-9.018;2022-12-07T11:10:58;147911.22;;;14.21;100.00
63033;BME280;49121;38.932;-9.018;2022-12-07T11:17:45;148004.81;;;14.59;99.61
63033;BME280;49121;38.932;-9.018;2022-12-07T11:22:41;148031.34;;;14.69;98.89
63033;BME280;49121;38.932;-9.018;2022-12-07T11:24:54;148066.78;;;14.84;97.96
63033;BME280;49121;38.932;-9.018;2022-12-07T11:27:09;148092.09;;;14.94;98.59
63033;BME280;49121;38.932;-9.018;2022-12-07T11:29:33;148095.91;;;14.96;98.81
63033;BME280;49121;38.932;-9.018;2022-12-07T11:32:29;148080.72;;;14.89;98.85
63033;BME280;49121;38.932;-9.018;2022-12-07T11:37:39;148070.59;;;14.85;96.85
63033;BME280;49121;38.932;-9.018;2022-12-07T11:42:31;147963.06;;;14.42;98.61
63033;BME280;49121;38.932;-9.018;2022-12-07T11:44:53;148031.34;;;14.69;98.39
63033;BME280;49121;38.932;-9.018;2022-12-07T11:47:06;148057.91;;;14.80;99.42
63033;BME280;49121;38.932;-9.018;2022-12-07T11:52:30;148170.53;;;15.26;97.47
63033;BME280;49121;38.932;-9.018;2022-12-07T11:54:36;148160.41;;;15.22;97.59
63033;BME280;49121;38.932;-9.018;2022-12-07T11:56:40;148133.84;;;15.11;97.44
63033;BME280;49121;38.932;-9.018;2022-12-07T11:58:49;148175.59;;;15.28;97.37
63033;BME280;49121;38.932;-9.018;2022-12-07T12:01:00;148160.41;;;15.22;97.38
63033;BME280;49121;38.932;-9.018;2022-12-07T12:03:12;148209.75;;;15.42;96.10
63033;BME280;49121;38.932;-9.018;2022-12-07T12:05:19;148102.22;;;14.98;97.36
63033;BME280;49121;38.932;-9.018;2022-12-07T12:07:25;148146.47;;;15.16;97.05
63033;BME280;49121;38.932;-9.018;2022-12-07T12:09:40;148147.75;;;15.17;97.74
63033;BME280;49121;38.932;-9.018;2022-12-07T12:16:56;148156.59;;;15.20;98.50
63033;BME280;49121;38.932;-9.018;2022-12-07T12:19:27;148036.41;;;14.71;100.00
63033;BME280;49121;38.932;-9.018;2022-12-07T12:21:34;148035.16;;;14.71;100.00
63033;BME280;49121;38.932;-9.018;2022-12-07T12:23:54;147982.00;;;14.49;100.00
63033;BME280;49121;38.932;-9.018;2022-12-07T12:26:01;147997.22;;;14.56;100.00
63033;BME280;49121;38.932;-9.018;2022-12-07T12:28:05;147976.94;;;14.47;100.00
63033;BME280;49121;38.932;-9.018;2022-12-07T12:30:29;147949.13;;;14.36;100.00
63033;BME280;49121;38.932;-9.018;2022-12-07T12:32:40;147927.63;;;14.27;100.00
63033;BME280;49121;38.932;-9.018;2022-12-07T12:37:42;147970.63;;;14.45;100.00
63033;BME280;49121;38.932;-9.018;2022-12-07T12:42:53;147727.91;;;13.46;100.00
63033;BME280;49121;38.932;-9.018;2022-12-07T12:45:18;147659.63;;;13.19;100.00
63033;BME280;49121;38.932;-9.018;2022-12-07T12:47:39;147712.75;;;13.40;100.00
63033;BME280;49121;38.932;-9.018;2022-12-07T12:49:54;147703.88;;;13.37;100.00
63033;BME280;49121;38.932;-9.018;2022-12-07T12:54:26;147654.56;;;13.17;100.00
63033;BME280;49121;38.932;-9.018;2022-12-07T12:57:06;147698.88;;;13.35;100.00
63033;BME280;49121;38.932;-9.018;2022-12-07T12:59:23;147696.31;;;13.34;100.00
63033;BME280;49121;38.932;-9.018;2022-12-07T13:01:57;147643.22;;;13.12;100.00
63033;BME280;49121;38.932;-9.018;2022-12-07T13:04:33;147639.41;;;13.10;100.00
63033;BME280;49121;38.932;-9.018;2022-12-07T13:06:36;147673.53;;;13.24;100.00
63033;BME280;49121;38.932;-9.018;2022-12-07T13:08:40;147652.06;;;13.16;100.00
63033;BME280;49121;38.932;-9.018;2022-12-07T13:10:53;147621.75;;;13.03;100.00
63033;BME280;49121;38.932;-9.018;2022-12-07T13:21:47;147562.38;;;12.79;100.00
63033;BME280;49121;38.932;-9.018;2022-12-07T13:23:59;147559.84;;;12.78;100.00
63033;BME280;49121;38.932;-9.018;2022-12-07T13:28:36;147538.38;;;12.69;100.00
63033;BME280;49121;38.932;-9.018;2022-12-07T13:31:23;147551.03;;;12.75;100.00
63033;BME280;49121;38.932;-9.018;2022-12-07T13:33:17;147545.97;;;12.73;100.00
63033;BME280;49121;38.932;-9.018;2022-12-07T13:35:31;147545.97;;;12.73;100.00
63033;BME280;49121;38.932;-9.018;2022-12-07T13:37:33;147553.53;;;12.76;100.00
63033;BME280;49121;38.932;-9.018;2022-12-07T13:39:34;147545.97;;;12.73;100.00
63033;BME280;49121;38.932;-9.018;2022-12-07T13:44:15;147539.63;;;12.70;100.00
63033;BME280;49121;38.932;-9.018;2022-12-07T13:46:20;147525.75;;;12.64;100.00
63033;BME280;49121;38.932;-9.018;2022-12-07T13:48:42;147525.75;;;12.64;100.00
63033;BME280;49121;38.932;-9.018;2022-12-07T13:50:53;147533.31;;;12.67;100.00
63033;BME280;49121;38.932;-9.018;2022-12-07T13:52:57;147552.28;;;12.75;100.00
63033;BME280;49121;38.932;-9.018;2022-12-07T13:57:04;147567.44;;;12.81;100.00
63033;BME280;49121;38.932;-9.018;2022-12-07T13:59:17;147571.19;;;12.83;100.00
63033;BME280;49121;38.932;-9.018;2022-12-07T14:01:21;147569.94;;;12.82;100.00
63033;BME280;49121;38.932;-9.018;2022-12-07T14:03:27;147582.59;;;12.87;100.00
63033;BME280;49121;38.932;-9.018;2022-12-07T14:05:33;147587.59;;;12.89;100.00
63033;BME280;49121;38.932;-9.018;2022-12-07T14:07:35;147591.41;;;12.91;100.00
63033;BME280;49121;38.932;-9.018;2022-12-07T14:09:36;147599.00;;;12.94;100.00
63033;BME280;49121;38.932;-9.018;2022-12-07T14:11:38;147604.06;;;12.96;100.00
63033;BME280;49121;38.932;-9.018;2022-12-07T14:13:44;147610.38;;;12.99;100.00
63033;BME280;49121;38.932;-9.018;2022-12-07T14:15:54;147609.13;;;12.98;100.00
63033;BME280;49121;38.932;-9.018;2022-12-07T14:17:57;147625.53;;;13.05;100.00
63033;BME280;49121;38.932;-9.018;2022-12-07T14:20:00;147624.25;;;13.04;100.00
63033;BME280;49121;38.932;-9.018;2022-12-07T14:22:23;147639.41;;;13.10;100.00
63033;BME280;49121;38.932;-9.018;2022-12-07T14:24:24;147621.75;;;13.03;100.00
63033;BME280;49121;38.932;-9.018;2022-12-07T14:26:25;147649.53;;;13.15;100.00
63033;BME280;49121;38.932;-9.018;2022-12-07T14:28:35;147645.72;;;13.13;100.00
63033;BME280;49121;38.932;-9.018;2022-12-07T14:30:44;147682.34;;;13.28;100.00
63033;BME280;49121;38.932;-9.018;2022-12-07T14:32:48;147687.47;;;13.30;100.00
63033;BME280;49121;38.932;-9.018;2022-12-07T14:35:08;147659.63;;;13.19;100.00
63033;BME280;49121;38.932;-9.018;2022-12-07T14:37:22;147701.38;;;13.36;100.00
63033;BME280;49121;38.932;-9.018;2022-12-07T14:39:24;147687.47;;;13.30;100.00
63033;BME280;49121;38.932;-9.018;2022-12-07T14:41:25;147705.19;;;13.37;100.00
63033;BME280;49121;38.932;-9.018;2022-12-07T14:43:44;147701.38;;;13.36;100.00
63033;BME280;49121;38.932;-9.018;2022-12-07T14:45:45;147722.84;;;13.44;100.00
63033;BME280;49121;38.932;-9.018;2022-12-07T14:47:45;147720.34;;;13.43;100.00
63033;BME280;49121;38.932;-9.018;2022-12-07T14:49:48;147714.00;;;13.41;100.00